Cary, Mississippi
Current Conditions -  °F | °C
As of 7:53 AM on Thursday 27 Nov 2014 (Local Time) from KTVR Reporting Station
Clear Clear  
Wind Chill: 39°   Ceiling: Unl
Heat Index: 43°   Visibility: 10mi
Dew Point: 31°   Wind: 6mph
Humidity: 62%   Direction: 340°NNW
Pressure: 30.48"   Gusts: NA
Location:  32.81°N, 90.93°W
Report Text: KTVR 271353Z AUTO 34005KT 10SM CLR 06/M01 A3048 RMK AO2 SLP327 T00611006
Loading
Personal Weather Stations






























Interactive Weather Map New forecast layout! Learn more

10-Day Weather Forecast

Advertisements
Track Severe Weather on mobile